sensor_id;sensor_type;location;lat;lon;timestamp;P1;durP1;ratioP1;P2;durP2;ratioP2
45893;SDS011;31603;51.148;16.932;2023-04-01T00:03:19;9.18;;;5.88;;
45893;SDS011;31603;51.148;16.932;2023-04-01T00:06:45;9.02;;;6.28;;
45893;SDS011;31603;51.148;16.932;2023-04-01T00:10:13;13.93;;;7.57;;
45893;SDS011;31603;51.148;16.932;2023-04-01T00:13:39;10.93;;;6.63;;
45893;SDS011;31603;51.148;16.932;2023-04-01T00:17:06;11.60;;;7.90;;
45893;SDS011;31603;51.148;16.932;2023-04-01T00:20:49;11.85;;;7.38;;
45893;SDS011;31603;51.148;16.932;2023-04-01T00:24:16;14.98;;;8.40;;
45893;SDS011;31603;51.148;16.932;2023-04-01T00:27:56;14.43;;;9.35;;
45893;SDS011;31603;51.148;16.932;2023-04-01T00:31:21;14.13;;;8.82;;
45893;SDS011;31603;51.148;16.932;2023-04-01T00:34:51;16.02;;;8.75;;
45893;SDS011;31603;51.148;16.932;2023-04-01T00:38:23;16.00;;;9.50;;
45893;SDS011;31603;51.148;16.932;2023-04-01T00:41:55;15.55;;;9.30;;
45893;SDS011;31603;51.148;16.932;2023-04-01T00:45:55;14.10;;;9.63;;
45893;SDS011;31603;51.148;16.932;2023-04-01T00:49:25;17.00;;;11.90;;
45893;SDS011;31603;51.148;16.932;2023-04-01T00:52:54;22.10;;;13.85;;
45893;SDS011;31603;51.148;16.932;2023-04-01T00:56:32;21.70;;;14.75;;
45893;SDS011;31603;51.148;16.932;2023-04-01T01:00:03;26.13;;;17.80;;
45893;SDS011;31603;51.148;16.932;2023-04-01T01:03:28;39.55;;;27.00;;
45893;SDS011;31603;51.148;16.932;2023-04-01T01:06:56;41.45;;;29.15;;
45893;SDS011;31603;51.148;16.932;2023-04-01T01:10:30;50.25;;;31.52;;
45893;SDS011;31603;51.148;16.932;2023-04-01T01:17:48;43.35;;;30.13;;
45893;SDS011;31603;51.148;16.932;2023-04-01T01:21:39;39.88;;;28.00;;
45893;SDS011;31603;51.148;16.932;2023-04-01T01:25:21;43.00;;;29.40;;
45893;SDS011;31603;51.148;16.932;2023-04-01T01:29:07;35.55;;;25.75;;
45893;SDS011;31603;51.148;16.932;2023-04-01T01:33:18;27.30;;;19.05;;
45893;SDS011;31603;51.148;16.932;2023-04-01T01:36:53;27.17;;;18.20;;
45893;SDS011;31603;51.148;16.932;2023-04-01T01:40:20;26.33;;;18.38;;
45893;SDS011;31603;51.148;16.932;2023-04-01T01:43:47;29.33;;;17.27;;
45893;SDS011;31603;51.148;16.932;2023-04-01T01:47:15;22.85;;;16.05;;
45893;SDS011;31603;51.148;16.932;2023-04-01T01:50:47;23.40;;;15.43;;
45893;SDS011;31603;51.148;16.932;2023-04-01T01:54:21;18.75;;;13.32;;
45893;SDS011;31603;51.148;16.932;2023-04-01T01:57:52;18.73;;;12.98;;
45893;SDS011;31603;51.148;16.932;2023-04-01T02:01:25;17.65;;;11.98;;
45893;SDS011;31603;51.148;16.932;2023-04-01T02:04:51;17.98;;;10.15;;
45893;SDS011;31603;51.148;16.932;2023-04-01T02:08:20;16.20;;;9.77;;
45893;SDS011;31603;51.148;16.932;2023-04-01T02:11:48;15.38;;;10.63;;
45893;SDS011;31603;51.148;16.932;2023-04-01T02:15:15;16.73;;;11.18;;
45893;SDS011;31603;51.148;16.932;2023-04-01T02:20:24;14.77;;;10.65;;
45893;SDS011;31603;51.148;16.932;2023-04-01T02:26:09;15.43;;;9.73;;
45893;SDS011;31603;51.148;16.932;2023-04-01T02:29:50;16.77;;;9.77;;
45893;SDS011;31603;51.148;16.932;2023-04-01T02:33:22;16.40;;;9.80;;
45893;SDS011;31603;51.148;16.932;2023-04-01T02:36:51;16.90;;;10.02;;
45893;SDS011;31603;51.148;16.932;2023-04-01T02:40:20;16.13;;;9.75;;
45893;SDS011;31603;51.148;16.932;2023-04-01T02:43:49;15.63;;;10.18;;
45893;SDS011;31603;51.148;16.932;2023-04-01T02:47:14;15.43;;;9.63;;
45893;SDS011;31603;51.148;16.932;2023-04-01T02:50:40;16.10;;;9.98;;
45893;SDS011;31603;51.148;16.932;2023-04-01T02:54:07;18.00;;;10.45;;
45893;SDS011;31603;51.148;16.932;2023-04-01T02:57:50;15.35;;;9.05;;
45893;SDS011;31603;51.148;16.932;2023-04-01T03:01:35;14.38;;;7.35;;
45893;SDS011;31603;51.148;16.932;2023-04-01T03:05:11;15.23;;;6.93;;
45893;SDS011;31603;51.148;16.932;2023-04-01T03:08:53;13.77;;;6.47;;
45893;SDS011;31603;51.148;16.932;2023-04-01T03:12:31;9.93;;;6.00;;
45893;SDS011;31603;51.148;16.932;2023-04-01T03:15:59;9.73;;;5.25;;
45893;SDS011;31603;51.148;16.932;2023-04-01T03:19:25;8.23;;;5.30;;
45893;SDS011;31603;51.148;16.932;2023-04-01T03:22:50;7.35;;;4.97;;
45893;SDS011;31603;51.148;16.932;2023-04-01T03:26:29;11.57;;;5.80;;
45893;SDS011;31603;51.148;16.932;2023-04-01T03:29:55;8.82;;;5.70;;
45893;SDS011;31603;51.148;16.932;2023-04-01T03:33:36;16.70;;;10.80;;
45893;SDS011;31603;51.148;16.932;2023-04-01T03:37:11;14.00;;;10.30;;
45893;SDS011;31603;51.148;16.932;2023-04-01T03:40:43;13.00;;;8.80;;
45893;SDS011;31603;51.148;16.932;2023-04-01T03:44:33;12.80;;;8.60;;
45893;SDS011;31603;51.148;16.932;2023-04-01T03:48:00;15.68;;;8.35;;
45893;SDS011;31603;51.148;16.932;2023-04-01T03:51:27;12.18;;;7.93;;
45893;SDS011;31603;51.148;16.932;2023-04-01T03:55:06;13.25;;;8.45;;
45893;SDS011;31603;51.148;16.932;2023-04-01T03:58:33;16.33;;;8.70;;
45893;SDS011;31603;51.148;16.932;2023-04-01T04:02:04;11.50;;;7.60;;
45893;SDS011;31603;51.148;16.932;2023-04-01T04:05:31;13.02;;;7.50;;
45893;SDS011;31603;51.148;16.932;2023-04-01T04:08:56;10.15;;;6.35;;
45893;SDS011;31603;51.148;16.932;2023-04-01T04:12:21;11.50;;;6.00;;
45893;SDS011;31603;51.148;16.932;2023-04-01T04:15:47;10.13;;;5.75;;
45893;SDS011;31603;51.148;16.932;2023-04-01T04:19:14;8.73;;;6.25;;
45893;SDS011;31603;51.148;16.932;2023-04-01T04:22:40;9.25;;;5.63;;
45893;SDS011;31603;51.148;16.932;2023-04-01T04:26:07;10.18;;;6.50;;
45893;SDS011;31603;51.148;16.932;2023-04-01T04:29:32;9.88;;;5.88;;
45893;SDS011;31603;51.148;16.932;2023-04-01T04:32:57;9.95;;;5.60;;
45893;SDS011;31603;51.148;16.932;2023-04-01T04:36:26;13.15;;;6.55;;
45893;SDS011;31603;51.148;16.932;2023-04-01T04:39:51;13.63;;;6.15;;
45893;SDS011;31603;51.148;16.932;2023-04-01T04:43:30;11.35;;;5.97;;
45893;SDS011;31603;51.148;16.932;2023-04-01T04:46:55;10.18;;;6.40;;
45893;SDS011;31603;51.148;16.932;2023-04-01T04:50:23;9.93;;;5.88;;
45893;SDS011;31603;51.148;16.932;2023-04-01T04:53:50;7.68;;;5.47;;
45893;SDS011;31603;51.148;16.932;2023-04-01T04:57:15;7.50;;;5.55;;
45893;SDS011;31603;51.148;16.932;2023-04-01T05:00:40;8.77;;;5.90;;
45893;SDS011;31603;51.148;16.932;2023-04-01T05:04:05;9.38;;;6.43;;
45893;SDS011;31603;51.148;16.932;2023-04-01T05:07:32;10.63;;;5.78;;
45893;SDS011;31603;51.148;16.932;2023-04-01T05:11:00;8.65;;;5.88;;
45893;SDS011;31603;51.148;16.932;2023-04-01T05:14:33;7.72;;;5.80;;
45893;SDS011;31603;51.148;16.932;2023-04-01T05:17:58;9.25;;;5.45;;
45893;SDS011;31603;51.148;16.932;2023-04-01T05:21:23;8.98;;;5.57;;
45893;SDS011;31603;51.148;16.932;2023-04-01T05:24:49;8.60;;;5.70;;
45893;SDS011;31603;51.148;16.932;2023-04-01T05:28:16;10.30;;;6.32;;
45893;SDS011;31603;51.148;16.932;2023-04-01T05:31:41;12.95;;;6.90;;
45893;SDS011;31603;51.148;16.932;2023-04-01T05:35:08;15.32;;;7.53;;
45893;SDS011;31603;51.148;16.932;2023-04-01T05:38:34;13.48;;;7.80;;
45893;SDS011;31603;51.148;16.932;2023-04-01T05:42:10;14.32;;;8.27;;
45893;SDS011;31603;51.148;16.932;2023-04-01T05:45:49;14.75;;;9.48;;
45893;SDS011;31603;51.148;16.932;2023-04-01T05:49:21;16.25;;;9.80;;
45893;SDS011;31603;51.148;16.932;2023-04-01T05:53:13;21.13;;;13.35;;
45893;SDS011;31603;51.148;16.932;2023-04-01T05:56:39;23.13;;;13.07;;
45893;SDS011;31603;51.148;16.932;2023-04-01T06:00:21;24.25;;;14.23;;
45893;SDS011;31603;51.148;16.932;2023-04-01T06:03:53;22.17;;;16.33;;
45893;SDS011;31603;51.148;16.932;2023-04-01T06:07:24;36.67;;;24.17;;
45893;SDS011;31603;51.148;16.932;2023-04-01T06:10:53;36.17;;;23.38;;
45893;SDS011;31603;51.148;16.932;2023-04-01T06:14:59;33.97;;;24.35;;
45893;SDS011;31603;51.148;16.932;2023-04-01T06:18:42;41.75;;;23.88;;
45893;SDS011;31603;51.148;16.932;2023-04-01T06:22:29;33.33;;;23.45;;
45893;SDS011;31603;51.148;16.932;2023-04-01T06:26:17;27.88;;;20.33;;
45893;SDS011;31603;51.148;16.932;2023-04-01T06:29:57;25.77;;;19.13;;
45893;SDS011;31603;51.148;16.932;2023-04-01T06:33:37;25.38;;;16.13;;
45893;SDS011;31603;51.148;16.932;2023-04-01T06:37:28;18.85;;;11.85;;
45893;SDS011;31603;51.148;16.932;2023-04-01T06:41:21;15.07;;;9.30;;
45893;SDS011;31603;51.148;16.932;2023-04-01T06:45:33;13.32;;;7.82;;
45893;SDS011;31603;51.148;16.932;2023-04-01T06:49:15;10.27;;;7.40;;
45893;SDS011;31603;51.148;16.932;2023-04-01T06:56:44;11.45;;;7.03;;
45893;SDS011;31603;51.148;16.932;2023-04-01T07:00:25;9.20;;;5.88;;
45893;SDS011;31603;51.148;16.932;2023-04-01T07:03:55;8.60;;;5.38;;
45893;SDS011;31603;51.148;16.932;2023-04-01T07:07:33;10.95;;;6.28;;
45893;SDS011;31603;51.148;16.932;2023-04-01T07:11:19;9.68;;;6.28;;
45893;SDS011;31603;51.148;16.932;2023-04-01T07:14:55;10.18;;;6.90;;
45893;SDS011;31603;51.148;16.932;2023-04-01T07:18:58;9.35;;;5.88;;
45893;SDS011;31603;51.148;16.932;2023-04-01T07:22:47;12.60;;;7.10;;
45893;SDS011;31603;51.148;16.932;2023-04-01T07:26:31;12.25;;;8.05;;
45893;SDS011;31603;51.148;16.932;2023-04-01T07:30:20;9.30;;;6.18;;
45893;SDS011;31603;51.148;16.932;2023-04-01T07:34:27;15.60;;;8.00;;
45893;SDS011;31603;51.148;16.932;2023-04-01T07:37:52;9.68;;;6.65;;
45893;SDS011;31603;51.148;16.932;2023-04-01T07:41:40;10.48;;;6.25;;
45893;SDS011;31603;51.148;16.932;2023-04-01T07:45:35;10.88;;;4.97;;
45893;SDS011;31603;51.148;16.932;2023-04-01T07:49:11;9.15;;;5.00;;
45893;SDS011;31603;51.148;16.932;2023-04-01T07:53:25;9.20;;;5.05;;
45893;SDS011;31603;51.148;16.932;2023-04-01T07:56:37;9.73;;;5.10;;
45893;SDS011;31603;51.148;16.932;2023-04-01T08:09:05;11.15;;;6.40;;
45893;SDS011;31603;51.148;16.932;2023-04-01T08:13:50;11.43;;;6.45;;
45893;SDS011;31603;51.148;16.932;2023-04-01T08:16:46;13.73;;;5.93;;
45893;SDS011;31603;51.148;16.932;2023-04-01T08:20:24;10.15;;;5.97;;
45893;SDS011;31603;51.148;16.932;2023-04-01T08:23:56;12.50;;;6.53;;
45893;SDS011;31603;51.148;16.932;2023-04-01T08:27:28;13.18;;;6.53;;
45893;SDS011;31603;51.148;16.932;2023-04-01T08:30:56;12.52;;;5.68;;
45893;SDS011;31603;51.148;16.932;2023-04-01T08:37:59;12.23;;;4.88;;
45893;SDS011;31603;51.148;16.932;2023-04-01T08:41:44;11.25;;;6.03;;
45893;SDS011;31603;51.148;16.932;2023-04-01T08:45:41;7.95;;;5.40;;
45893;SDS011;31603;51.148;16.932;2023-04-01T08:49:51;7.50;;;4.97;;
45893;SDS011;31603;51.148;16.932;2023-04-01T08:53:46;5.95;;;4.53;;
45893;SDS011;31603;51.148;16.932;2023-04-01T08:57:21;5.45;;;4.35;;
45893;SDS011;31603;51.148;16.932;2023-04-01T09:01:24;10.10;;;5.10;;
45893;SDS011;31603;51.148;16.932;2023-04-01T09:09:12;11.80;;;5.20;;
45893;SDS011;31603;51.148;16.932;2023-04-01T09:13:10;11.70;;;4.47;;
45893;SDS011;31603;51.148;16.932;2023-04-01T09:25:13;9.85;;;4.07;;
45893;SDS011;31603;51.148;16.932;2023-04-01T09:28:58;8.48;;;3.92;;
45893;SDS011;31603;51.148;16.932;2023-04-01T09:32:58;12.30;;;7.35;;
45893;SDS011;31603;51.148;16.932;2023-04-01T09:36:38;6.22;;;4.32;;
45893;SDS011;31603;51.148;16.932;2023-04-01T09:40:40;5.53;;;3.95;;
45893;SDS011;31603;51.148;16.932;2023-04-01T09:44:25;5.38;;;3.55;;
45893;SDS011;31603;51.148;16.932;2023-04-01T09:48:22;7.57;;;3.63;;
45893;SDS011;31603;51.148;16.932;2023-04-01T09:52:10;5.93;;;3.40;;
45893;SDS011;31603;51.148;16.932;2023-04-01T09:55:58;3.75;;;2.58;;
45893;SDS011;31603;51.148;16.932;2023-04-01T10:19:55;3.25;;;2.10;;
45893;SDS011;31603;51.148;16.932;2023-04-01T10:23:41;5.10;;;2.38;;
45893;SDS011;31603;51.148;16.932;2023-04-01T10:27:39;7.50;;;2.85;;
45893;SDS011;31603;51.148;16.932;2023-04-01T10:43:50;1.10;;;0.95;;
45893;SDS011;31603;51.148;16.932;2023-04-01T10:56:04;1.85;;;1.10;;
45893;SDS011;31603;51.148;16.932;2023-04-01T10:59:46;1.83;;;1.00;;
45893;SDS011;31603;51.148;16.932;2023-04-01T11:08:04;1.63;;;1.27;;
45893;SDS011;31603;51.148;16.932;2023-04-01T11:23:23;8.90;;;2.55;;
45893;SDS011;31603;51.148;16.932;2023-04-01T11:25:56;6.85;;;3.50;;
45893;SDS011;31603;51.148;16.932;2023-04-01T11:28:37;6.22;;;3.50;;
45893;SDS011;31603;51.148;16.932;2023-04-01T11:31:11;5.38;;;3.00;;
45893;SDS011;31603;51.148;16.932;2023-04-01T11:33:44;4.20;;;2.35;;
45893;SDS011;31603;51.148;16.932;2023-04-01T11:36:20;3.45;;;1.90;;
45893;SDS011;31603;51.148;16.932;2023-04-01T11:39:00;3.22;;;1.88;;
45893;SDS011;31603;51.148;16.932;2023-04-01T11:41:30;4.43;;;1.95;;
45893;SDS011;31603;51.148;16.932;2023-04-01T11:44:04;3.90;;;2.35;;
45893;SDS011;31603;51.148;16.932;2023-04-01T11:46:37;4.57;;;3.17;;
45893;SDS011;31603;51.148;16.932;2023-04-01T11:49:07;3.53;;;1.50;;
45893;SDS011;31603;51.148;16.932;2023-04-01T11:54:31;1.85;;;1.30;;
45893;SDS011;31603;51.148;16.932;2023-04-01T11:57:06;3.22;;;1.80;;
45893;SDS011;31603;51.148;16.932;2023-04-01T11:59:40;1.85;;;1.25;;
45893;SDS011;31603;51.148;16.932;2023-04-01T12:02:13;2.88;;;1.20;;
45893;SDS011;31603;51.148;16.932;2023-04-01T12:04:46;1.33;;;1.10;;
45893;SDS011;31603;51.148;16.932;2023-04-01T12:07:23;1.98;;;1.20;;
45893;SDS011;31603;51.148;16.932;2023-04-01T12:09:56;1.65;;;1.30;;
45893;SDS011;31603;51.148;16.932;2023-04-01T12:12:29;3.50;;;1.80;;
45893;SDS011;31603;51.148;16.932;2023-04-01T12:15:10;2.28;;;1.70;;
45893;SDS011;31603;51.148;16.932;2023-04-01T12:17:56;3.58;;;1.52;;
45893;SDS011;31603;51.148;16.932;2023-04-01T12:20:37;2.53;;;1.63;;
45893;SDS011;31603;51.148;16.932;2023-04-01T12:23:15;2.50;;;1.83;;
45893;SDS011;31603;51.148;16.932;2023-04-01T12:28:18;2.67;;;1.85;;
45893;SDS011;31603;51.148;16.932;2023-04-01T12:30:50;3.50;;;2.50;;
45893;SDS011;31603;51.148;16.932;2023-04-01T12:36:13;6.05;;;2.78;;
45893;SDS011;31603;51.148;16.932;2023-04-01T12:38:42;3.40;;;2.25;;
45893;SDS011;31603;51.148;16.932;2023-04-01T12:41:13;5.97;;;2.75;;
45893;SDS011;31603;51.148;16.932;2023-04-01T12:47:04;3.33;;;2.20;;
45893;SDS011;31603;51.148;16.932;2023-04-01T12:49:46;4.45;;;2.95;;
45893;SDS011;31603;51.148;16.932;2023-04-01T12:52:14;3.38;;;2.72;;
45893;SDS011;31603;51.148;16.932;2023-04-01T12:54:56;3.28;;;2.42;;
45893;SDS011;31603;51.148;16.932;2023-04-01T12:57:32;3.05;;;2.40;;
45893;SDS011;31603;51.148;16.932;2023-04-01T13:00:03;7.53;;;4.35;;
45893;SDS011;31603;51.148;16.932;2023-04-01T13:02:39;4.10;;;2.80;;
45893;SDS011;31603;51.148;16.932;2023-04-01T13:07:34;3.28;;;2.53;;
45893;SDS011;31603;51.148;16.932;2023-04-01T13:10:06;2.72;;;1.50;;
45893;SDS011;31603;51.148;16.932;2023-04-01T13:12:48;3.65;;;2.15;;
45893;SDS011;31603;51.148;16.932;2023-04-01T13:15:23;4.35;;;2.47;;
45893;SDS011;31603;51.148;16.932;2023-04-01T13:17:54;8.20;;;3.10;;
45893;SDS011;31603;51.148;16.932;2023-04-01T13:20:28;14.82;;;3.85;;
45893;SDS011;31603;51.148;16.932;2023-04-01T13:23:02;6.13;;;3.25;;
45893;SDS011;31603;51.148;16.932;2023-04-01T13:25:36;14.07;;;3.70;;
45893;SDS011;31603;51.148;16.932;2023-04-01T13:28:06;2.38;;;1.92;;
45893;SDS011;31603;51.148;16.932;2023-04-01T13:30:35;4.13;;;2.22;;
45893;SDS011;31603;51.148;16.932;2023-04-01T13:33:06;2.75;;;2.00;;
45893;SDS011;31603;51.148;16.932;2023-04-01T13:35:39;3.90;;;2.40;;
45893;SDS011;31603;51.148;16.932;2023-04-01T13:38:32;5.50;;;2.33;;
45893;SDS011;31603;51.148;16.932;2023-04-01T13:41:06;4.45;;;2.65;;
45893;SDS011;31603;51.148;16.932;2023-04-01T13:43:39;5.10;;;3.38;;
45893;SDS011;31603;51.148;16.932;2023-04-01T13:46:11;5.45;;;3.42;;
45893;SDS011;31603;51.148;16.932;2023-04-01T13:48:46;4.05;;;2.40;;
45893;SDS011;31603;51.148;16.932;2023-04-01T13:51:29;4.22;;;2.30;;
45893;SDS011;31603;51.148;16.932;2023-04-01T13:54:00;2.90;;;2.60;;
45893;SDS011;31603;51.148;16.932;2023-04-01T13:56:36;2.70;;;2.10;;
45893;SDS011;31603;51.148;16.932;2023-04-01T13:59:15;2.30;;;1.55;;
45893;SDS011;31603;51.148;16.932;2023-04-01T14:01:46;3.28;;;1.88;;
45893;SDS011;31603;51.148;16.932;2023-04-01T14:04:36;2.30;;;1.80;;
45893;SDS011;31603;51.148;16.932;2023-04-01T14:07:10;2.42;;;1.75;;
45893;SDS011;31603;51.148;16.932;2023-04-01T14:09:50;1.88;;;1.52;;
45893;SDS011;31603;51.148;16.932;2023-04-01T14:12:29;2.80;;;1.95;;
45893;SDS011;31603;51.148;16.932;2023-04-01T14:15:01;3.03;;;1.70;;
45893;SDS011;31603;51.148;16.932;2023-04-01T14:17:39;3.17;;;1.83;;
45893;SDS011;31603;51.148;16.932;2023-04-01T14:20:17;2.27;;;1.70;;
45893;SDS011;31603;51.148;16.932;2023-04-01T14:22:48;4.10;;;2.10;;
45893;SDS011;31603;51.148;16.932;2023-04-01T14:25:22;3.03;;;1.92;;
45893;SDS011;31603;51.148;16.932;2023-04-01T14:27:55;2.83;;;2.28;;
45893;SDS011;31603;51.148;16.932;2023-04-01T14:30:35;3.88;;;2.25;;
45893;SDS011;31603;51.148;16.932;2023-04-01T14:33:06;5.20;;;2.97;;
45893;SDS011;31603;51.148;16.932;2023-04-01T14:35:48;5.18;;;2.75;;
45893;SDS011;31603;51.148;16.932;2023-04-01T14:38:21;4.47;;;3.00;;
45893;SDS011;31603;51.148;16.932;2023-04-01T14:40:58;4.63;;;3.10;;
45893;SDS011;31603;51.148;16.932;2023-04-01T14:43:38;7.68;;;4.88;;
45893;SDS011;31603;51.148;16.932;2023-04-01T14:46:13;8.07;;;4.28;;
45893;SDS011;31603;51.148;16.932;2023-04-01T14:48:49;6.18;;;3.65;;
45893;SDS011;31603;51.148;16.932;2023-04-01T14:51:18;4.55;;;3.50;;
45893;SDS011;31603;51.148;16.932;2023-04-01T14:53:51;6.28;;;3.70;;
45893;SDS011;31603;51.148;16.932;2023-04-01T14:56:36;9.90;;;7.85;;
45893;SDS011;31603;51.148;16.932;2023-04-01T14:59:04;8.32;;;6.32;;
45893;SDS011;31603;51.148;16.932;2023-04-01T15:01:35;8.93;;;7.50;;
45893;SDS011;31603;51.148;16.932;2023-04-01T15:04:10;8.02;;;6.20;;
45893;SDS011;31603;51.148;16.932;2023-04-01T15:09:28;11.77;;;7.15;;
45893;SDS011;31603;51.148;16.932;2023-04-01T15:12:02;8.15;;;5.25;;
45893;SDS011;31603;51.148;16.932;2023-04-01T15:14:41;5.75;;;4.57;;
45893;SDS011;31603;51.148;16.932;2023-04-01T15:20:02;7.07;;;4.20;;
45893;SDS011;31603;51.148;16.932;2023-04-01T15:22:40;8.00;;;5.60;;
45893;SDS011;31603;51.148;16.932;2023-04-01T15:25:30;10.35;;;8.00;;
45893;SDS011;31603;51.148;16.932;2023-04-01T15:27:59;8.38;;;4.88;;
45893;SDS011;31603;51.148;16.932;2023-04-01T15:30:32;7.45;;;4.30;;
45893;SDS011;31603;51.148;16.932;2023-04-01T15:35:28;4.88;;;3.72;;
45893;SDS011;31603;51.148;16.932;2023-04-01T15:37:58;15.35;;;9.25;;
45893;SDS011;31603;51.148;16.932;2023-04-01T15:40:30;14.23;;;9.77;;
45893;SDS011;31603;51.148;16.932;2023-04-01T15:43:12;12.63;;;10.43;;
45893;SDS011;31603;51.148;16.932;2023-04-01T15:45:46;10.23;;;8.52;;
45893;SDS011;31603;51.148;16.932;2023-04-01T15:48:20;8.65;;;7.15;;
45893;SDS011;31603;51.148;16.932;2023-04-01T15:53:37;8.25;;;5.70;;
45893;SDS011;31603;51.148;16.932;2023-04-01T15:56:15;8.95;;;6.90;;
45893;SDS011;31603;51.148;16.932;2023-04-01T15:58:45;13.38;;;8.40;;
45893;SDS011;31603;51.148;16.932;2023-04-01T16:01:16;11.98;;;10.15;;
45893;SDS011;31603;51.148;16.932;2023-04-01T16:03:45;13.55;;;7.72;;
45893;SDS011;31603;51.148;16.932;2023-04-01T16:06:23;13.25;;;7.55;;
45893;SDS011;31603;51.148;16.932;2023-04-01T16:09:06;19.77;;;8.00;;
45893;SDS011;31603;51.148;16.932;2023-04-01T16:11:38;24.73;;;9.52;;
45893;SDS011;31603;51.148;16.932;2023-04-01T16:14:09;22.92;;;9.82;;
45893;SDS011;31603;51.148;16.932;2023-04-01T16:16:42;12.40;;;6.90;;
45893;SDS011;31603;51.148;16.932;2023-04-01T16:19:24;11.82;;;7.47;;
45893;SDS011;31603;51.148;16.932;2023-04-01T16:21:57;10.00;;;7.10;;
45893;SDS011;31603;51.148;16.932;2023-04-01T16:24:30;9.68;;;6.72;;
45893;SDS011;31603;51.148;16.932;2023-04-01T16:27:02;9.88;;;7.88;;
45893;SDS011;31603;51.148;16.932;2023-04-01T16:31:59;11.70;;;6.97;;
45893;SDS011;31603;51.148;16.932;2023-04-01T16:34:30;12.30;;;8.40;;
45893;SDS011;31603;51.148;16.932;2023-04-01T16:36:59;11.30;;;8.10;;
45893;SDS011;31603;51.148;16.932;2023-04-01T16:39:28;14.85;;;10.60;;
45893;SDS011;31603;51.148;16.932;2023-04-01T16:42:07;15.95;;;10.68;;
45893;SDS011;31603;51.148;16.932;2023-04-01T16:44:43;20.17;;;15.35;;
45893;SDS011;31603;51.148;16.932;2023-04-01T16:47:11;18.45;;;14.43;;
45893;SDS011;31603;51.148;16.932;2023-04-01T16:49:39;18.80;;;12.23;;
45893;SDS011;31603;51.148;16.932;2023-04-01T16:52:13;21.88;;;14.52;;
45893;SDS011;31603;51.148;16.932;2023-04-01T16:54:41;25.80;;;17.67;;
45893;SDS011;31603;51.148;16.932;2023-04-01T16:57:16;36.78;;;24.70;;
45893;SDS011;31603;51.148;16.932;2023-04-01T16:59:45;63.70;;;38.85;;
45893;SDS011;31603;51.148;16.932;2023-04-01T17:02:13;43.72;;;28.45;;
45893;SDS011;31603;51.148;16.932;2023-04-01T17:04:52;33.72;;;20.95;;
45893;SDS011;31603;51.148;16.932;2023-04-01T17:07:21;23.70;;;15.25;;
45893;SDS011;31603;51.148;16.932;2023-04-01T17:10:01;20.30;;;13.32;;
45893;SDS011;31603;51.148;16.932;2023-04-01T17:12:34;19.75;;;12.88;;
45893;SDS011;31603;51.148;16.932;2023-04-01T17:15:10;23.75;;;14.93;;
45893;SDS011;31603;51.148;16.932;2023-04-01T17:17:49;17.67;;;11.05;;
45893;SDS011;31603;51.148;16.932;2023-04-01T17:20:20;14.95;;;10.13;;
45893;SDS011;31603;51.148;16.932;2023-04-01T17:22:53;15.02;;;10.35;;
45893;SDS011;31603;51.148;16.932;2023-04-01T17:25:34;26.98;;;17.10;;
45893;SDS011;31603;51.148;16.932;2023-04-01T17:28:23;22.80;;;15.48;;
45893;SDS011;31603;51.148;16.932;2023-04-01T17:30:52;22.25;;;13.95;;
45893;SDS011;31603;51.148;16.932;2023-04-01T17:33:38;19.95;;;13.32;;
45893;SDS011;31603;51.148;16.932;2023-04-01T17:36:22;21.40;;;14.63;;
45893;SDS011;31603;51.148;16.932;2023-04-01T17:38:58;18.60;;;12.20;;
45893;SDS011;31603;51.148;16.932;2023-04-01T17:41:43;18.20;;;12.40;;
45893;SDS011;31603;51.148;16.932;2023-04-01T17:47:32;29.67;;;16.75;;
45893;SDS011;31603;51.148;16.932;2023-04-01T17:50:13;32.10;;;18.80;;
45893;SDS011;31603;51.148;16.932;2023-04-01T17:52:42;38.33;;;23.25;;
45893;SDS011;31603;51.148;16.932;2023-04-01T17:55:21;25.58;;;17.60;;
45893;SDS011;31603;51.148;16.932;2023-04-01T17:57:52;25.42;;;16.75;;
45893;SDS011;31603;51.148;16.932;2023-04-01T18:00:23;30.48;;;19.45;;
45893;SDS011;31603;51.148;16.932;2023-04-01T18:02:54;25.50;;;16.57;;
45893;SDS011;31603;51.148;16.932;2023-04-01T18:05:24;27.00;;;17.95;;
45893;SDS011;31603;51.148;16.932;2023-04-01T18:07:57;40.05;;;23.05;;
45893;SDS011;31603;51.148;16.932;2023-04-01T18:10:26;33.40;;;18.92;;
45893;SDS011;31603;51.148;16.932;2023-04-01T18:12:59;36.60;;;20.63;;
45893;SDS011;31603;51.148;16.932;2023-04-01T18:15:32;36.83;;;20.60;;
45893;SDS011;31603;51.148;16.932;2023-04-01T18:18:11;36.65;;;20.80;;
45893;SDS011;31603;51.148;16.932;2023-04-01T18:20:47;43.05;;;23.42;;
45893;SDS011;31603;51.148;16.932;2023-04-01T18:23:21;43.67;;;24.70;;
45893;SDS011;31603;51.148;16.932;2023-04-01T18:25:49;48.50;;;26.88;;
45893;SDS011;31603;51.148;16.932;2023-04-01T18:28:22;47.15;;;24.73;;
45893;SDS011;31603;51.148;16.932;2023-04-01T18:30:53;47.90;;;26.08;;
45893;SDS011;31603;51.148;16.932;2023-04-01T18:33:26;51.95;;;27.90;;
45893;SDS011;31603;51.148;16.932;2023-04-01T18:35:57;50.50;;;27.38;;
45893;SDS011;31603;51.148;16.932;2023-04-01T18:38:25;57.88;;;29.52;;
45893;SDS011;31603;51.148;16.932;2023-04-01T18:41:07;49.72;;;28.30;;
45893;SDS011;31603;51.148;16.932;2023-04-01T18:43:53;51.67;;;26.98;;
45893;SDS011;31603;51.148;16.932;2023-04-01T18:46:27;54.20;;;29.33;;
45893;SDS011;31603;51.148;16.932;2023-04-01T18:51:39;59.67;;;30.15;;
45893;SDS011;31603;51.148;16.932;2023-04-01T18:54:11;59.45;;;31.20;;
45893;SDS011;31603;51.148;16.932;2023-04-01T18:56:40;52.72;;;28.85;;
45893;SDS011;31603;51.148;16.932;2023-04-01T18:59:08;57.88;;;30.50;;
45893;SDS011;31603;51.148;16.932;2023-04-01T19:01:39;49.47;;;26.67;;
45893;SDS011;31603;51.148;16.932;2023-04-01T19:04:12;52.28;;;29.77;;
45893;SDS011;31603;51.148;16.932;2023-04-01T19:06:46;52.95;;;27.83;;
45893;SDS011;31603;51.148;16.932;2023-04-01T19:09:23;56.67;;;28.52;;
45893;SDS011;31603;51.148;16.932;2023-04-01T19:14:41;55.50;;;30.30;;
45893;SDS011;31603;51.148;16.932;2023-04-01T19:17:15;55.35;;;30.98;;
45893;SDS011;31603;51.148;16.932;2023-04-01T19:19:47;53.65;;;28.80;;
45893;SDS011;31603;51.148;16.932;2023-04-01T19:22:24;58.30;;;31.02;;
45893;SDS011;31603;51.148;16.932;2023-04-01T19:25:01;54.35;;;30.13;;
45893;SDS011;31603;51.148;16.932;2023-04-01T19:27:29;60.05;;;31.75;;
45893;SDS011;31603;51.148;16.932;2023-04-01T19:30:05;55.92;;;29.80;;
45893;SDS011;31603;51.148;16.932;2023-04-01T19:32:38;54.30;;;28.95;;
45893;SDS011;31603;51.148;16.932;2023-04-01T19:35:15;62.45;;;32.03;;
45893;SDS011;31603;51.148;16.932;2023-04-01T19:37:50;57.80;;;27.95;;
45893;SDS011;31603;51.148;16.932;2023-04-01T19:40:25;52.72;;;27.67;;
45893;SDS011;31603;51.148;16.932;2023-04-01T19:42:58;57.58;;;28.95;;
45893;SDS011;31603;51.148;16.932;2023-04-01T19:45:36;55.47;;;27.90;;
45893;SDS011;31603;51.148;16.932;2023-04-01T19:48:09;54.15;;;27.60;;
45893;SDS011;31603;51.148;16.932;2023-04-01T19:50:50;54.55;;;29.33;;
45893;SDS011;31603;51.148;16.932;2023-04-01T19:53:31;53.90;;;27.60;;
45893;SDS011;31603;51.148;16.932;2023-04-01T19:56:01;54.42;;;26.20;;
45893;SDS011;31603;51.148;16.932;2023-04-01T19:58:38;53.75;;;28.00;;
45893;SDS011;31603;51.148;16.932;2023-04-01T20:01:10;52.97;;;27.58;;
45893;SDS011;31603;51.148;16.932;2023-04-01T20:03:45;59.30;;;31.02;;